Time;durP1;ratioP1;P1;durP2;ratioP2;P2;SDS_P1;SDS_P2;PMS_P1;PMS_P2;Temp;Humidity;BMP_temperature;BMP_pressure;BME280_temperature;BME280_humidity;BME280_pressure;Samples;Min_cycle;Max_cycle;Signal;HPM_P1;HPM_P2
2021/10/21 00:02:16;;;;;;;4.53;2.38;;;;;;;26.82;36.47;95414.09;5033957;28;20959;-31
2021/10/21 00:04:42;;;;;;;4.95;2.22;;;;;;;26.82;36.35;95419.34;5036738;28;20039;-33
2021/10/21 00:07:08;;;;;;;3.92;2.45;;;;;;;26.82;36.31;95408.84;5034644;28;20199;-32
2021/10/21 00:09:34;;;;;;;3.63;2.00;;;;;;;26.83;36.40;95404.38;5035342;28;20021;-29
2021/10/21 00:12:00;;;;;;;5.80;2.20;;;;;;;26.82;36.29;95406.19;5036493;28;20036;-29
2021/10/21 00:14:25;;;;;;;5.50;2.17;;;;;;;26.81;36.27;95393.19;5039292;28;20037;-30
2021/10/21 00:16:51;;;;;;;3.13;2.00;;;;;;;26.78;36.25;95396.88;5043397;28;20035;-34
2021/10/21 00:19:16;;;;;;;3.35;2.10;;;;;;;26.82;36.22;95397.47;5035557;28;20089;-30
2021/10/21 00:21:41;;;;;;;3.58;1.92;;;;;;;26.81;36.26;95383.47;5034904;28;20025;-32
2021/10/21 00:24:07;;;;;;;4.38;2.15;;;;;;;26.81;36.34;95378.22;5034294;28;20032;-31
2021/10/21 00:26:32;;;;;;;3.72;2.15;;;;;;;26.81;36.32;95353.75;5032658;28;20032;-29
2021/10/21 00:28:58;;;;;;;2.70;1.60;;;;;;;26.80;36.38;95358.16;5034791;28;20112;-32
2021/10/21 00:31:24;;;;;;;4.70;2.03;;;;;;;26.80;36.31;95373.94;5035155;28;20070;-29
2021/10/21 00:33:49;;;;;;;3.30;2.00;;;;;;;26.82;36.40;95371.19;5029028;28;20029;-28
2021/10/21 00:36:14;;;;;;;3.63;2.00;;;;;;;26.80;36.34;95363.41;5027514;28;20036;-31
2021/10/21 00:38:40;;;;;;;4.50;1.90;;;;;;;26.81;36.28;95359.81;5024153;28;20286;-33
2021/10/21 00:41:05;;;;;;;2.88;1.70;;;;;;;26.80;36.28;95347.66;5033223;28;20558;-37
2021/10/21 00:43:37;;;;;;;2.33;1.70;;;;;;;26.79;36.40;95340.72;5039455;28;20025;-31
2021/10/21 00:46:05;;;;;;;2.85;1.77;;;;;;;26.80;36.43;95342.41;5027299;28;20028;-32
2021/10/21 00:48:30;;;;;;;2.35;1.70;;;;;;;26.79;36.46;95322.34;5022957;28;20059;-28
2021/10/21 00:50:56;;;;;;;2.35;1.60;;;;;;;26.80;36.48;95310.00;5028370;28;20470;-30
2021/10/21 00:53:22;;;;;;;3.08;1.90;;;;;;;26.80;36.40;95300.34;5041217;28;20029;-28
2021/10/21 00:55:47;;;;;;;3.25;1.90;;;;;;;26.79;36.40;95303.94;5025960;28;20028;-30
2021/10/21 00:58:12;;;;;;;3.70;2.10;;;;;;;26.81;36.41;95302.00;5025199;28;20801;-30
2021/10/21 01:00:38;;;;;;;1.95;1.70;;;;;;;26.80;36.42;95300.34;5025674;28;20029;-31
2021/10/21 01:03:03;;;;;;;3.03;1.90;;;;;;;26.81;36.36;95298.56;5025382;28;20382;-29
2021/10/21 01:05:29;;;;;;;4.22;1.70;;;;;;;26.80;36.32;95295.09;5026740;28;20037;-30
2021/10/21 01:07:54;;;;;;;1.73;1.38;;;;;;;26.80;36.40;95274.06;5024354;28;20033;-27
2021/10/21 01:10:19;;;;;;;2.40;1.58;;;;;;;26.80;36.54;95258.28;5008999;28;20025;-31
2021/10/21 01:12:45;;;;;;;2.17;1.50;;;;;;;26.80;36.41;95258.28;5026873;28;20033;-32
2021/10/21 01:15:21;;;;;;;9.35;2.30;;;;;;;26.80;36.57;95281.09;5030261;28;20035;-31
2021/10/21 01:17:47;;;;;;;6.78;1.90;;;;;;;26.79;36.55;95282.91;5025558;28;20460;-30
2021/10/21 01:20:13;;;;;;;3.85;1.90;;;;;;;26.80;36.68;95281.94;5024935;28;20025;-29
2021/10/21 01:22:39;;;;;;;2.58;1.40;;;;;;;26.80;36.52;95266.19;5025741;28;20029;-31
2021/10/21 01:25:05;;;;;;;3.58;1.73;;;;;;;26.79;36.49;95269.78;5040951;28;20823;-29
2021/10/21 01:27:30;;;;;;;2.22;1.73;;;;;;;26.80;36.47;95247.78;5040004;28;20024;-30
2021/10/21 01:29:56;;;;;;;2.88;1.70;;;;;;;26.79;36.56;95246.13;5035734;28;20820;-28
2021/10/21 01:32:25;;;;;;;3.60;2.00;;;;;;;26.80;36.46;95241.69;5032133;28;20020;-31
2021/10/21 01:34:51;;;;;;;2.00;1.52;;;;;;;26.78;36.46;95228.69;5034661;28;20086;-30
2021/10/21 01:37:16;;;;;;;2.65;1.70;;;;;;;26.79;36.44;95214.59;5035013;28;20127;-28
2021/10/21 01:39:42;;;;;;;2.85;1.50;;;;;;;26.80;36.49;95225.91;5035004;28;20013;-33
2021/10/21 01:42:07;;;;;;;1.95;1.70;;;;;;;26.79;36.47;95209.34;5033533;28;20820;-32
2021/10/21 01:44:33;;;;;;;4.95;1.80;;;;;;;26.80;36.52;95189.13;5042732;28;20029;-30
2021/10/21 01:46:58;;;;;;;3.65;1.70;;;;;;;26.79;36.54;95177.78;5037497;28;20448;-29
2021/10/21 01:49:24;;;;;;;1.60;1.50;;;;;;;26.79;36.38;95169.91;5030476;28;20031;-31
2021/10/21 01:51:50;;;;;;;3.13;1.60;;;;;;;26.79;36.42;95161.19;5033302;28;20895;-33
2021/10/21 01:54:15;;;;;;;1.85;1.55;;;;;;;26.78;36.45;95162.16;5030666;28;20028;-32
2021/10/21 01:56:41;;;;;;;2.15;1.20;;;;;;;26.79;36.40;95162.03;5034753;28;20029;-30
2021/10/21 01:59:06;;;;;;;2.15;1.50;;;;;;;26.79;36.45;95150.66;5035469;28;20022;-32
2021/10/21 02:01:32;;;;;;;2.47;1.50;;;;;;;26.79;36.50;95154.16;5038013;28;20534;-31
2021/10/21 02:03:57;;;;;;;3.83;1.77;;;;;;;26.79;36.46;95135.75;5040850;28;20041;-27
2021/10/21 02:06:24;;;;;;;3.13;1.40;;;;;;;26.77;36.48;95127.13;5041145;28;20028;-31
2021/10/21 02:08:49;;;;;;;1.95;1.50;;;;;;;26.72;36.62;95129.31;5038242;28;20029;-29
2021/10/21 02:11:15;;;;;;;2.70;1.38;;;;;;;26.78;36.45;95123.56;5040018;28;20025;-31
2021/10/21 02:13:40;;;;;;;2.80;1.15;;;;;;;26.78;36.55;95114.84;5038751;28;20025;-29
2021/10/21 02:16:05;;;;;;;2.95;1.40;;;;;;;26.78;36.52;95102.56;5043020;28;20041;-30
2021/10/21 02:18:31;;;;;;;1.75;1.35;;;;;;;26.78;36.52;95102.56;5039410;28;20028;-28
2021/10/21 02:20:56;;;;;;;2.03;1.40;;;;;;;26.78;36.45;95128.84;5036927;28;20067;-27
2021/10/21 02:23:22;;;;;;;2.10;1.42;;;;;;;26.78;36.49;95117.47;5036383;28;20107;-28
2021/10/21 02:25:47;;;;;;;2.85;1.60;;;;;;;26.79;36.57;95113.88;5039958;28;20040;-34
2021/10/21 02:28:12;;;;;;;1.95;1.00;;;;;;;26.77;36.57;95111.38;5039887;28;20025;-32
2021/10/21 02:30:38;;;;;;;1.85;1.35;;;;;;;26.77;36.62;95114.00;5038630;28;20062;-31
2021/10/21 02:33:03;;;;;;;2.13;1.38;;;;;;;26.78;36.55;95120.09;5035475;28;20031;-31
2021/10/21 02:35:29;;;;;;;1.45;1.30;;;;;;;26.77;36.55;95103.50;5044169;28;20036;-31
2021/10/21 02:37:54;;;;;;;2.72;1.05;;;;;;;26.78;36.67;95105.19;5032215;28;20487;-28
2021/10/21 02:40:20;;;;;;;1.75;1.20;;;;;;;26.77;36.53;95100.88;5034488;28;20033;-32
2021/10/21 02:42:46;;;;;;;2.22;1.40;;;;;;;26.77;36.55;95095.59;5036735;28;20108;-31
2021/10/21 02:45:11;;;;;;;2.35;1.52;;;;;;;26.77;36.55;95071.16;5039079;28;20025;-32
2021/10/21 02:47:36;;;;;;;2.03;1.35;;;;;;;26.77;36.62;95071.97;5036533;28;20572;-29
2021/10/21 02:50:02;;;;;;;1.55;1.25;;;;;;;26.77;36.43;95056.19;5032476;28;20480;-29
2021/10/21 02:52:28;;;;;;;2.45;1.00;;;;;;;26.77;36.53;95074.59;5034759;28;20717;-29
2021/10/21 02:54:53;;;;;;;2.28;1.45;;;;;;;26.78;36.58;95076.28;5038258;28;20268;-28
2021/10/21 02:57:18;;;;;;;1.45;1.35;;;;;;;26.78;36.50;95081.53;5042576;28;20040;-30
2021/10/21 02:59:44;;;;;;;1.30;1.20;;;;;;;26.78;36.49;95078.91;5040128;28;20078;-27
2021/10/21 03:02:09;;;;;;;2.13;1.30;;;;;;;26.77;36.54;95069.31;5040909;28;20040;-31
2021/10/21 03:04:34;;;;;;;2.90;1.30;;;;;;;26.78;36.44;95081.53;5041769;28;20522;-28
2021/10/21 03:07:00;;;;;;;2.17;1.45;;;;;;;26.78;36.57;95071.03;5043148;28;20032;-29
2021/10/21 03:09:25;;;;;;;1.80;1.17;;;;;;;26.78;36.55;95084.16;5041318;28;20086;-28
2021/10/21 03:11:51;;;;;;;1.85;1.30;;;;;;;26.79;36.54;95087.59;5041508;28;20029;-28
2021/10/21 03:14:16;;;;;;;1.58;1.33;;;;;;;26.78;36.62;95096.44;5044267;28;20033;-29
2021/10/21 03:16:41;;;;;;;1.38;1.20;;;;;;;26.78;36.64;95102.56;5038344;28;20032;-29
2021/10/21 03:19:08;;;;;;;4.45;1.08;;;;;;;26.77;36.48;95116.63;5043095;28;20044;-31
2021/10/21 03:21:34;;;;;;;1.42;1.10;;;;;;;26.78;36.50;95128.84;5024818;28;20035;-28
2021/10/21 03:23:59;;;;;;;1.20;1.10;;;;;;;26.79;36.47;95130.50;5039595;28;20387;-30
2021/10/21 03:26:25;;;;;;;1.88;1.42;;;;;;;26.78;36.55;95139.34;5042642;28;20033;-31
2021/10/21 03:28:51;;;;;;;2.78;1.33;;;;;;;26.79;36.58;95148.88;5042088;28;20033;-31
2021/10/21 03:31:16;;;;;;;1.98;1.20;;;;;;;26.77;36.58;95132.41;5037251;28;20032;-31
2021/10/21 03:33:42;;;;;;;1.00;0.82;;;;;;;26.78;36.50;95133.25;5039123;28;20032;-31
2021/10/21 03:36:07;;;;;;;1.48;1.10;;;;;;;26.78;36.52;95134.09;5032684;28;20040;-28
2021/10/21 03:38:33;;;;;;;1.25;0.90;;;;;;;26.79;36.51;95124.38;5027667;28;20036;-30
2021/10/21 03:40:59;;;;;;;1.17;1.02;;;;;;;26.79;36.51;95124.38;5027967;28;20039;-30
2021/10/21 03:43:25;;;;;;;1.70;1.20;;;;;;;26.78;36.60;95123.56;5030586;28;20130;-30
2021/10/21 03:45:50;;;;;;;1.23;0.90;;;;;;;26.78;36.52;95128.84;5032973;28;20502;-31
2021/10/21 03:48:16;;;;;;;1.63;1.05;;;;;;;26.78;36.52;95134.09;5033548;28;20099;-28
2021/10/21 03:50:41;;;;;;;2.22;1.10;;;;;;;26.79;36.56;95151.50;5037398;28;20506;-31
2021/10/21 03:53:09;;;;;;;1.55;1.00;;;;;;;26.78;36.53;95155.13;5031153;28;20040;-30
2021/10/21 03:55:38;;;;;;;1.02;0.88;;;;;;;26.80;36.31;95168.09;5036418;28;20127;-28
2021/10/21 03:58:03;;;;;;;0.88;0.70;;;;;;;26.79;36.49;95166.44;5040473;28;20083;-31
2021/10/21 04:00:28;;;;;;;1.33;0.90;;;;;;;26.78;36.57;95191.06;5041161;28;20552;-30
2021/10/21 04:02:54;;;;;;;1.05;0.77;;;;;;;26.78;36.51;95191.06;5039846;28;20028;-30
2021/10/21 04:05:22;;;;;;;1.20;0.88;;;;;;;26.78;36.53;95202.41;5038731;28;20032;-31
2021/10/21 04:07:47;;;;;;;1.92;0.80;;;;;;;26.79;36.49;95203.22;5043285;28;20024;-31
2021/10/21 04:10:13;;;;;;;0.98;0.80;;;;;;;26.78;36.56;95212.09;5040532;28;20036;-30
2021/10/21 04:12:38;;;;;;;1.30;1.00;;;;;;;26.78;36.59;95217.34;5043458;28;20033;-31
2021/10/21 04:15:04;;;;;;;1.38;1.05;;;;;;;26.74;36.59;95219.38;5042304;28;20465;-29
2021/10/21 04:17:30;;;;;;;1.08;0.85;;;;;;;26.78;36.57;95222.59;5043394;28;20087;-30
2021/10/21 04:19:55;;;;;;;0.90;0.90;;;;;;;26.78;36.55;95244.47;5041751;28;20025;-31
2021/10/21 04:22:20;;;;;;;1.48;1.02;;;;;;;26.78;36.54;95249.72;5042334;28;20024;-35
2021/10/21 04:24:46;;;;;;;1.23;0.70;;;;;;;26.78;36.45;95238.34;5036665;28;20032;-28
2021/10/21 04:27:12;;;;;;;0.70;0.70;;;;;;;26.77;36.52;95258.53;5037413;28;20757;-31
2021/10/21 04:29:37;;;;;;;1.02;0.80;;;;;;;26.79;36.62;95261.88;5045359;28;20036;-28
2021/10/21 04:32:03;;;;;;;2.10;1.10;;;;;;;26.78;36.49;95270.75;5041696;28;20036;-29
2021/10/21 04:34:28;;;;;;;1.13;0.80;;;;;;;26.79;36.54;95272.41;5039522;28;20106;-32
2021/10/21 04:36:54;;;;;;;1.10;0.90;;;;;;;26.79;36.57;95293.44;5038689;28;20035;-29
2021/10/21 04:39:19;;;;;;;2.25;0.90;;;;;;;26.78;36.50;95299.66;5037510;28;20017;-31
2021/10/21 04:41:44;;;;;;;1.95;0.90;;;;;;;26.78;36.44;95311.94;5039753;28;20025;-29
2021/10/21 04:44:10;;;;;;;1.13;0.80;;;;;;;26.79;36.42;95321.50;5027804;28;20110;-30
2021/10/21 04:46:35;;;;;;;2.00;0.70;;;;;;;26.79;36.23;95324.13;5031695;28;20032;-30
2021/10/21 04:49:01;;;;;;;3.15;0.70;;;;;;;26.79;36.40;95313.59;5030385;28;20040;-28
2021/10/21 04:51:26;;;;;;;1.30;0.60;;;;;;;26.79;36.44;95310.97;5027104;28;20359;-29
2021/10/21 04:53:51;;;;;;;2.67;0.98;;;;;;;26.79;36.30;95324.97;5024097;28;20750;-28
2021/10/21 04:56:17;;;;;;;2.42;1.10;;;;;;;26.78;36.33;95333.81;5025564;28;20037;-30
2021/10/21 04:58:42;;;;;;;0.85;0.75;;;;;;;26.79;36.34;95310.97;5027334;28;20048;-30
2021/10/21 05:01:09;;;;;;;1.38;0.88;;;;;;;26.79;36.28;95346.00;5028064;28;20411;-31
2021/10/21 05:03:34;;;;;;;2.08;0.95;;;;;;;26.79;36.27;95332.84;5035441;28;20882;-29
2021/10/21 05:05:59;;;;;;;0.90;0.68;;;;;;;26.78;36.19;95346.09;5026512;28;20024;-31
2021/10/21 05:08:25;;;;;;;1.13;0.77;;;;;;;26.78;36.21;95352.22;5029165;28;20029;-30
2021/10/21 05:10:50;;;;;;;3.83;0.93;;;;;;;26.78;36.28;95344.31;5031831;28;20415;-32
2021/10/21 05:13:15;;;;;;;1.23;0.60;;;;;;;26.79;36.17;95367.00;5037937;28;20106;-31
2021/10/21 05:15:41;;;;;;;1.50;0.77;;;;;;;26.79;36.21;95360.91;5040590;28;20345;-31
2021/10/21 05:18:07;;;;;;;1.08;0.65;;;;;;;26.78;36.21;95354.84;5040149;28;20387;-30
2021/10/21 05:20:33;;;;;;;1.00;0.68;;;;;;;26.78;36.17;95364.50;5033887;28;20031;-25
2021/10/21 05:22:58;;;;;;;3.47;0.98;;;;;;;26.78;36.07;95362.72;5036776;28;20352;-30
2021/10/21 05:25:24;;;;;;;1.50;0.82;;;;;;;26.77;36.12;95368.91;5032854;28;20037;-32
2021/10/21 05:27:49;;;;;;;1.50;0.70;;;;;;;26.78;36.05;95380.28;5042528;28;20032;-31
2021/10/21 05:30:15;;;;;;;0.90;0.60;;;;;;;26.78;36.06;95367.97;5039652;28;20597;-30
2021/10/21 05:32:40;;;;;;;1.58;0.95;;;;;;;26.77;35.90;95374.16;5027812;28;20074;-28
2021/10/21 05:35:06;;;;;;;1.45;0.98;;;;;;;26.78;36.00;95375.88;5033159;28;20991;-31
2021/10/21 05:37:31;;;;;;;0.98;0.52;;;;;;;26.77;35.98;95389.94;5037586;28;20024;-32
2021/10/21 05:39:57;;;;;;;1.38;0.70;;;;;;;26.78;35.96;95385.53;5029379;28;20055;-29
2021/10/21 05:42:23;;;;;;;2.08;1.00;;;;;;;26.77;35.96;95389.94;5043959;28;20025;-30
2021/10/21 05:44:49;;;;;;;1.30;0.80;;;;;;;26.78;35.92;95382.91;5032674;28;20035;-31
2021/10/21 05:47:15;;;;;;;1.67;0.82;;;;;;;26.77;36.10;95400.44;5034106;28;20033;-30
2021/10/21 05:49:41;;;;;;;1.90;0.55;;;;;;;26.77;35.94;95405.69;5034871;28;20088;-29
2021/10/21 05:52:06;;;;;;;1.15;0.70;;;;;;;26.76;36.02;95425.06;5040800;28;20024;-32
2021/10/21 05:54:31;;;;;;;1.95;0.85;;;;;;;26.76;35.86;95419.81;5039827;28;20047;-29
2021/10/21 05:56:57;;;;;;;1.98;0.65;;;;;;;26.76;35.85;95430.31;5040728;28;20610;-27
2021/10/21 05:59:22;;;;;;;0.85;0.77;;;;;;;26.75;35.94;95441.78;5041781;28;20736;-32
2021/10/21 06:01:48;;;;;;;1.83;0.75;;;;;;;26.76;35.91;95446.09;5037718;28;20122;-32
2021/10/21 06:04:13;;;;;;;4.72;0.93;;;;;;;26.74;35.85;95448.84;5038786;28;20032;-31
2021/10/21 06:06:39;;;;;;;1.38;0.73;;;;;;;26.76;35.96;95453.97;5043086;28;20109;-28
2021/10/21 06:09:04;;;;;;;2.95;0.80;;;;;;;26.75;35.83;95460.19;5033407;28;20075;-32
2021/10/21 06:11:35;;;;;;;2.40;0.80;;;;;;;26.75;35.77;95462.81;5037975;28;20143;-31
2021/10/21 06:14:02;;;;;;;1.52;0.80;;;;;;;26.75;35.78;95486.47;5041894;28;20060;-31
2021/10/21 06:16:27;;;;;;;0.65;0.65;;;;;;;26.75;35.82;95473.34;5041601;28;20027;-29
2021/10/21 06:18:53;;;;;;;3.90;1.40;;;;;;;26.74;35.56;95477.75;5039681;28;20032;-33
2021/10/21 06:21:22;;;;;;;1.63;0.80;;;;;;;26.74;35.72;95503.19;5037958;28;20033;-31
2021/10/21 06:23:48;;;;;;;1.23;0.75;;;;;;;26.73;35.69;95472.59;5035425;28;20514;-31
2021/10/21 06:26:16;;;;;;;0.95;0.68;;;;;;;26.74;35.65;95495.31;5033708;28;20031;-30
2021/10/21 06:28:42;;;;;;;2.35;0.80;;;;;;;26.73;35.64;95499.72;5040627;28;20032;-31
2021/10/21 06:31:07;;;;;;;4.75;1.02;;;;;;;26.73;35.53;95496.25;5033303;28;20039;-29
2021/10/21 06:33:33;;;;;;;0.73;0.60;;;;;;;26.72;35.63;95491.97;5052898;28;20182;-28
2021/10/21 06:35:58;;;;;;;2.13;0.80;;;;;;;26.73;35.77;95493.63;5032348;28;20648;-31
2021/10/21 06:38:23;;;;;;;2.13;0.75;;;;;;;26.72;35.69;95502.47;5035759;28;20037;-32
2021/10/21 06:40:49;;;;;;;3.38;1.13;;;;;;;26.72;35.72;95497.22;5054778;28;20035;-28
2021/10/21 06:43:14;;;;;;;5.93;1.00;;;;;;;26.72;35.66;95507.72;5043718;28;20514;-31
2021/10/21 06:45:40;;;;;;;3.20;1.00;;;;;;;26.72;35.69;95518.22;5039918;28;20055;-29
2021/10/21 06:48:05;;;;;;;6.20;1.25;;;;;;;26.71;35.38;95511.31;5033165;28;20541;-30
2021/10/21 06:50:31;;;;;;;7.22;1.48;;;;;;;26.70;35.39;95515.72;5033716;28;20167;-29
2021/10/21 06:52:56;;;;;;;7.88;1.58;;;;;;;26.71;35.36;95550.72;5034556;28;20040;-32
2021/10/21 06:55:22;;;;;;;5.35;1.40;;;;;;;26.70;35.33;95535.94;5042287;28;20562;-29
2021/10/21 06:57:51;;;;;;;6.28;1.45;;;;;;;26.71;35.21;95579.63;5030654;28;20024;-27
2021/10/21 07:00:17;;;;;;;5.72;1.85;;;;;;;26.71;35.24;95579.63;5037239;28;20784;-30
2021/10/21 07:02:43;;;;;;;7.38;1.80;;;;;;;26.71;35.21;95574.38;5037155;28;20036;-29
2021/10/21 07:05:13;;;;;;;6.38;1.92;;;;;;;26.72;35.13;95586.56;5038187;28;20079;-31
2021/10/21 07:07:42;;;;;;;7.55;1.90;;;;;;;26.72;35.10;95599.69;5055002;28;20393;-31
2021/10/21 07:10:08;;;;;;;5.10;1.92;;;;;;;26.71;34.96;95598.03;5056865;28;20697;-31
2021/10/21 07:12:34;;;;;;;6.55;2.10;;;;;;;26.72;35.02;95618.94;5055358;28;20624;-32
2021/10/21 07:14:59;;;;;;;6.95;2.50;;;;;;;26.73;34.86;95625.03;5056259;28;20078;-30
2021/10/21 07:17:25;;;;;;;7.20;2.13;;;;;;;26.72;34.84;95647.84;5056004;28;20085;-32
2021/10/21 07:19:51;;;;;;;4.93;1.88;;;;;;;26.73;34.78;95667.06;5057095;28;20139;-30
2021/10/21 07:22:16;;;;;;;8.02;2.00;;;;;;;26.73;34.82;95667.06;5053718;28;20040;-30
2021/10/21 07:24:43;;;;;;;7.97;2.30;;;;;;;26.73;34.72;95661.81;5056023;28;20035;-28
2021/10/21 07:27:08;;;;;;;7.32;2.17;;;;;;;26.74;34.75;95697.69;5054776;28;20067;-29
2021/10/21 07:29:34;;;;;;;9.85;2.42;;;;;;;26.73;34.67;95688.94;5053859;28;20104;-32
2021/10/21 07:32:00;;;;;;;5.53;2.05;;;;;;;26.74;34.65;95695.88;5057694;28;20090;-31
2021/10/21 07:34:25;;;;;;;7.05;2.25;;;;;;;26.74;34.62;95702.94;5055264;28;20040;-29
2021/10/21 07:36:51;;;;;;;6.40;2.53;;;;;;;26.74;34.59;95716.06;5056392;28;20704;-32
2021/10/21 07:39:16;;;;;;;6.82;1.80;;;;;;;26.73;34.25;95733.63;5053852;28;20035;-30
2021/10/21 07:41:42;;;;;;;9.90;1.88;;;;;;;26.73;34.26;95730.16;5054974;28;20020;-30
2021/10/21 07:44:08;;;;;;;4.78;1.95;;;;;;;26.73;34.43;95753.78;5056038;28;20031;-31
2021/10/21 07:46:34;;;;;;;5.70;1.90;;;;;;;26.73;34.55;95756.44;5055965;28;20149;-32
2021/10/21 07:49:00;;;;;;;8.40;2.13;;;;;;;26.72;34.61;95755.59;5053857;28;20060;-33
2021/10/21 07:51:30;;;;;;;5.15;1.92;;;;;;;26.72;34.67;95768.75;5060284;28;20123;-30
2021/10/21 07:53:56;;;;;;;4.93;1.40;;;;;;;26.72;34.65;95778.41;5062345;28;20027;-31
2021/10/21 07:56:22;;;;;;;4.78;1.70;;;;;;;26.72;34.70;95781.03;5064053;28;20028;-29
2021/10/21 07:58:47;;;;;;;5.35;1.73;;;;;;;26.71;34.72;95798.63;5061872;28;20029;-30
2021/10/21 08:01:13;;;;;;;4.18;1.42;;;;;;;26.71;34.78;95806.50;5061302;28;20035;-32
2021/10/21 08:03:38;;;;;;;4.50;1.70;;;;;;;26.71;34.78;95813.53;5063380;28;20037;-30
2021/10/21 08:06:04;;;;;;;4.38;1.42;;;;;;;26.70;34.85;95802.16;5062914;28;21318;-29
2021/10/21 08:08:30;;;;;;;3.72;1.77;;;;;;;26.71;34.89;95818.78;5061585;28;20134;-32
2021/10/21 08:10:56;;;;;;;7.88;1.80;;;;;;;26.70;34.88;95814.50;5064424;28;20060;-32
2021/10/21 08:13:22;;;;;;;9.02;1.90;;;;;;;26.71;34.82;95824.03;5064375;28;20174;-33
2021/10/21 08:15:47;;;;;;;5.75;1.75;;;;;;;26.71;34.83;95839.81;5064898;28;20035;-30
2021/10/21 08:18:13;;;;;;;4.82;1.48;;;;;;;26.71;34.88;95813.53;5067063;28;20016;-29
2021/10/21 08:20:40;;;;;;;4.10;1.70;;;;;;;26.71;34.87;95845.91;5059505;28;20452;-33
2021/10/21 08:23:05;;;;;;;2.47;1.20;;;;;;;26.71;34.80;95868.72;5066494;28;20031;-31
2021/10/21 08:25:31;;;;;;;5.40;2.00;;;;;;;26.70;34.89;95872.31;5065993;28;20583;-31
2021/10/21 08:27:56;;;;;;;4.32;1.48;;;;;;;26.71;34.90;95879.22;5061423;28;20037;-29
2021/10/21 08:30:24;;;;;;;5.05;1.55;;;;;;;26.70;34.99;95891.53;5060014;28;20478;-31
2021/10/21 08:32:54;;;;;;;4.80;1.65;;;;;;;26.71;34.98;95876.59;5053103;28;20038;-34
2021/10/21 08:35:19;;;;;;;4.28;1.40;;;;;;;26.72;34.95;95907.19;5054334;28;20135;-34
2021/10/21 08:37:45;;;;;;;5.25;1.35;;;;;;;26.70;34.97;95916.97;5055456;28;20035;-32
2021/10/21 08:40:11;;;;;;;3.30;1.40;;;;;;;26.72;35.06;95925.59;5057077;28;20044;-30
2021/10/21 08:42:37;;;;;;;7.75;1.60;;;;;;;26.72;34.91;95957.97;5053914;28;20035;-33
2021/10/21 08:45:02;;;;;;;8.88;1.70;;;;;;;26.72;34.81;95955.34;5051658;28;20067;-29
2021/10/21 08:47:28;;;;;;;9.20;1.33;;;;;;;26.71;34.14;95973.84;5052412;28;20038;-33
2021/10/21 08:49:53;;;;;;;7.80;1.70;;;;;;;26.70;34.00;95994.00;5034013;28;20024;-29
2021/10/21 08:52:19;;;;;;;16.83;2.35;;;;;;;26.70;33.71;95993.19;5035126;28;21031;-30
2021/10/21 08:54:44;;;;;;;5.82;2.40;;;;;;;26.67;33.84;95989.00;5036385;28;20036;-31
2021/10/21 08:57:12;;;;;;;8.52;2.45;;;;;;;26.66;33.80;96010.94;5054901;28;20032;-31
2021/10/21 08:59:41;;;;;;;6.43;2.20;;;;;;;26.66;33.97;96002.25;5052279;28;20715;-30
2021/10/21 09:02:13;;;;;;;9.63;2.30;;;;;;;26.65;33.98;96026.84;5051555;28;20020;-30
2021/10/21 09:04:52;;;;;;;11.18;2.05;;;;;;;26.64;34.13;96025.13;5066900;27;20056;-30
2021/10/21 09:10:07;;;;;;;5.70;2.50;;;;;;;26.63;34.44;96041.84;5060108;28;20477;-31
2021/10/21 09:12:48;;;;;;;15.05;2.70;;;;;;;26.63;34.43;96047.97;5063770;28;20028;-29
2021/10/21 09:15:18;;;;;;;14.60;2.90;;;;;;;26.64;34.48;96038.28;5057941;28;20932;-32
2021/10/21 09:17:44;;;;;;;8.65;2.83;;;;;;;26.63;34.45;96065.50;5058251;28;20127;-29
2021/10/21 09:20:38;;;;;;;9.98;2.60;;;;;;;26.63;34.62;96068.13;5058900;28;20040;-31
2021/10/21 09:23:06;;;;;;;14.57;3.00;;;;;;;26.63;34.73;96070.75;5059963;28;20066;-32
2021/10/21 09:25:32;;;;;;;11.75;2.53;;;;;;;26.63;34.60;96065.50;5055124;28;20551;-33
2021/10/21 09:27:58;;;;;;;11.48;3.22;;;;;;;26.64;34.65;96061.94;5055916;28;20044;-31
2021/10/21 09:30:33;;;;;;;5.50;2.05;;;;;;;26.62;33.54;96072.56;5061395;28;20073;-29
2021/10/21 09:33:06;;;;;;;3.58;1.35;;;;;;;26.59;32.03;96078.84;5060122;28;20044;-31
2021/10/21 09:35:31;;;;;;;2.85;1.25;;;;;;;26.56;31.48;96071.19;5062142;28;20127;-34
2021/10/21 09:37:57;;;;;;;2.55;1.10;;;;;;;26.51;30.39;96065.41;5060400;28;20031;-27
2021/10/21 09:40:28;;;;;;;3.00;0.80;;;;;;;26.47;30.29;96077.06;5063972;28;20050;-33
2021/10/21 09:43:00;;;;;;;5.93;1.20;;;;;;;26.41;30.02;96073.06;5063300;28;20028;-30
2021/10/21 09:45:37;;;;;;;6.95;1.50;;;;;;;26.39;30.57;96079.38;5062550;28;20028;-27
2021/10/21 09:48:04;;;;;;;5.70;1.50;;;;;;;26.37;31.03;96089.13;5064239;28;20036;-30
2021/10/21 09:50:41;;;;;;;3.55;1.55;;;;;;;26.35;31.78;96092.69;5058494;28;20139;-29
2021/10/21 09:53:20;;;;;;;7.45;1.70;;;;;;;26.37;32.25;96102.25;5068435;28;20039;-34
2021/10/21 09:56:01;;;;;;;9.80;2.35;;;;;;;26.35;32.63;96103.22;5047311;28;20037;-36
2021/10/21 09:58:30;;;;;;;4.53;1.70;;;;;;;26.39;32.75;96097.75;5062277;28;20028;-33
2021/10/21 10:01:08;;;;;;;6.68;1.88;;;;;;;26.41;32.91;96125.59;5063120;28;20033;-36
2021/10/21 10:03:35;;;;;;;10.63;2.00;;;;;;;26.43;33.03;96122.88;5060380;28;20023;-30
2021/10/21 10:06:00;;;;;;;8.02;2.60;;;;;;;26.45;33.16;96115.72;5063329;28;20486;-32
2021/10/21 10:08:32;;;;;;;10.18;2.40;;;;;;;26.47;33.09;96113.84;5061043;28;20032;-32
2021/10/21 10:11:00;;;;;;;6.40;2.28;;;;;;;26.47;33.19;96105.97;5062939;28;20024;-31
2021/10/21 10:13:27;;;;;;;9.73;2.95;;;;;;;26.49;33.21;96109.31;5063733;28;20391;-34
2021/10/21 10:15:52;;;;;;;10.30;2.83;;;;;;;26.51;33.30;96115.34;5063309;28;20086;-30
2021/10/21 10:18:25;;;;;;;11.15;2.97;;;;;;;26.51;33.26;96119.72;5062138;28;20040;-30
2021/10/21 10:21:20;;;;;;;9.48;2.42;;;;;;;26.53;33.39;96116.06;5043921;28;20029;-30
2021/10/21 10:23:51;;;;;;;10.90;2.50;;;;;;;26.54;33.42;96114.28;5060728;28;20134;-32
2021/10/21 10:26:45;;;;;;;10.57;2.10;;;;;;;26.54;33.42;96115.09;5060582;28;20111;-33
2021/10/21 10:29:18;;;;;;;12.70;3.08;;;;;;;26.56;33.54;96129.00;5062701;28;20040;-30
2021/10/21 10:31:47;;;;;;;9.90;2.60;;;;;;;26.57;33.57;96111.44;5063197;28;20028;-32
2021/10/21 10:34:35;;;;;;;7.43;2.38;;;;;;;26.57;33.57;96121.94;5060983;28;20093;-34
2021/10/21 10:37:12;;;;;;;10.77;2.80;;;;;;;26.58;33.63;96119.22;5063431;28;20509;-28
2021/10/21 10:40:04;;;;;;;8.18;2.85;;;;;;;26.60;33.62;96113.84;5062411;28;20571;-32
2021/10/21 10:42:30;;;;;;;10.02;2.35;;;;;;;26.61;33.88;96116.38;5062506;28;20045;-33
2021/10/21 10:44:57;;;;;;;9.98;2.42;;;;;;;26.61;33.54;96115.53;5061618;28;20795;-31
2021/10/21 10:47:38;;;;;;;10.25;2.55;;;;;;;26.61;33.69;96121.66;5061760;28;20037;-32
2021/10/21 10:50:04;;;;;;;10.35;2.30;;;;;;;26.63;33.73;96123.31;5055251;28;20020;-31
2021/10/21 10:52:59;;;;;;;6.13;2.08;;;;;;;26.64;33.79;96132.88;5056739;28;20131;-33
2021/10/21 10:55:26;;;;;;;5.45;2.10;;;;;;;26.64;33.76;96130.25;5054208;28;20040;-29
2021/10/21 10:57:53;;;;;;;9.70;2.30;;;;;;;26.65;33.92;96134.59;5052928;28;20029;-31
2021/10/21 11:00:39;;;;;;;8.98;2.58;;;;;;;26.64;33.88;96136.38;5050699;28;20520;-33
2021/10/21 11:03:08;;;;;;;7.18;2.40;;;;;;;26.67;33.92;96143.19;5059677;28;20131;-31
2021/10/21 11:05:48;;;;;;;6.65;2.33;;;;;;;26.67;34.08;96140.56;5054232;28;20028;-29
2021/10/21 11:08:15;;;;;;;7.05;2.25;;;;;;;26.68;34.07;96158.00;5057406;28;20506;-32
2021/10/21 11:10:53;;;;;;;8.45;2.40;;;;;;;26.67;34.14;96156.34;5055381;28;20029;-27
2021/10/21 11:13:39;;;;;;;9.75;2.63;;;;;;;26.69;34.27;96160.53;5054153;28;20143;-31
2021/10/21 11:16:43;;;;;;;23.67;7.55;;;;;;;26.68;34.35;96158.88;5053735;28;20605;-30
2021/10/21 11:19:09;;;;;;;60.40;15.95;;;;;;;26.69;34.66;96146.59;5057268;28;20442;-29
2021/10/21 11:21:52;;;;;;;67.22;18.58;;;;;;;26.68;35.96;96145.72;5057055;28;20731;-31
2021/10/21 11:24:42;;;;;;;69.85;18.83;;;;;;;26.69;37.00;96146.59;5062456;28;20062;-35
2021/10/21 11:27:08;;;;;;;62.83;20.35;;;;;;;26.69;37.34;96143.94;5056459;28;20555;-33
2021/10/21 11:29:33;;;;;;;62.28;18.98;;;;;;;26.70;37.77;96148.25;5058266;28;20059;-31
2021/10/21 11:31:59;;;;;;;55.30;17.67;;;;;;;26.70;38.13;96161.41;5057415;28;20059;-29
2021/10/21 11:34:25;;;;;;;59.42;17.65;;;;;;;26.69;38.57;96159.72;5057748;28;20032;-32
2021/10/21 11:36:50;;;;;;;52.55;17.33;;;;;;;26.70;38.72;96156.13;5055525;28;20706;-33